This is the latest recevied weather packets stored in our database for station/object KE6YLF. If no packets are shown the sender has not sent any weather packets the latest 1 day(s).
| Time | Temp. | Humidity | Pressure | Rain* | Wind** | Luminosity | Snow |
|---|---|---|---|---|---|---|---|
| 1778076114 | 17.78° C | 41% | 1079.2 hPa | 0 mm | - | - | - |
| 1778075507 | 19.44° C | 40% | 1079 hPa | 0 mm | - | - | - |
| 1778074294 | 15° C | 52% | 1078.7 hPa | 0 mm | - | - | - |
| 1778072779 | 12.78° C | 58% | 1078.6 hPa | 0 mm | - | - | - |
| 1778071872 | 11.67° C | 60% | 1078.5 hPa | 0 mm | - | - | - |
| 1778070663 | 11.67° C | 60% | 1078.3 hPa | 0 mm | - | - | - |
| 1778069149 | 12.22° C | 58% | 1078.3 hPa | 0 mm | - | - | - |
| 1778068544 | 11.67° C | 59% | 1078.2 hPa | 0 mm | - | - | - |
| 1778068242 | 11.67° C | 59% | 1078 hPa | 0 mm | - | - | - |
| 1778067335 | 12.22° C | 58% | 1078.2 hPa | 0 mm | - | - | - |
| 1778067032 | 12.22° C | 59% | 1078.2 hPa | 0 mm | - | - | - |
| 1778066426 | 11.67° C | 60% | 1078.2 hPa | 0 mm | - | - | - |
| 1778066124 | 12.22° C | 59% | 1078.2 hPa | 0 mm | - | - | - |
| 1778064911 | 12.78° C | 59% | 1077.9 hPa | 0 mm | - | - | - |
| 1778064609 | 12.22° C | 61% | 1078 hPa | 0 mm | - | - | - |
| 1778064307 | 11.67° C | 60% | 1078 hPa | 0 mm | - | - | - |
| 1778063398 | 12.78° C | 59% | 1077.8 hPa | 0 mm | - | - | - |
| 1778063096 | 12.78° C | 58% | 1077.8 hPa | 0 mm | - | - | - |
| 1778062187 | 12.78° C | 58% | 1077.9 hPa | 0 mm | - | - | - |
| 1778061583 | 13.33° C | 57% | 1077.7 hPa | 0 mm | - | - | - |
| 1778060977 | 13.89° C | 56% | 1077.5 hPa | 0 mm | - | - | - |
| 1778060676 | 14.44° C | 55% | 1077.5 hPa | 0 mm | - | - | - |
| 1778060373 | 14.44° C | 54% | 1077.6 hPa | 0 mm | - | - | - |
| 1778059162 | 14.44° C | 55% | 1077.5 hPa | 0 mm | - | - | - |
| 1778058861 | 14.44° C | 55% | 1077.4 hPa | 0 mm | - | - | - |
* Rain latest hour (hover to see other rain measurements)
** Current wind speed in m/s (hover to see current wind gust speed)